地図

経路データ

SID SEASON NUMBER BASIN SUBBASIN NAME ISO_TIME NATURE LAT LON WMO_WIND WMO_PRES WMO_AGENCY TRACK_TYPE DIST2LAND LANDFALL IFLAG USA_AGENCY USA_ATCF_ID USA_LAT USA_LON USA_RECORD USA_STATUS USA_WIND USA_PRES USA_SSHS USA_R34_NE USA_R34_SE USA_R34_SW USA_R34_NW USA_R50_NE USA_R50_SE USA_R50_SW USA_R50_NW USA_R64_NE USA_R64_SE USA_R64_SW USA_R64_NW USA_POCI USA_ROCI USA_RMW USA_EYE TOKYO_LAT TOKYO_LON TOKYO_GRADE TOKYO_WIND TOKYO_PRES TOKYO_R50_DIR TOKYO_R50_LONG TOKYO_R50_SHORT TOKYO_R30_DIR TOKYO_R30_LONG TOKYO_R30_SHORT TOKYO_LAND CMA_LAT CMA_LON CMA_CAT CMA_WIND CMA_PRES HKO_LAT HKO_LON HKO_CAT HKO_WIND HKO_PRES NEWDELHI_LAT NEWDELHI_LON NEWDELHI_GRADE NEWDELHI_WIND NEWDELHI_PRES NEWDELHI_CI NEWDELHI_DP NEWDELHI_POCI REUNION_LAT REUNION_LON REUNION_TYPE REUNION_WIND REUNION_PRES REUNION_TNUM REUNION_CI REUNION_RMW REUNION_R34_NE REUNION_R34_SE REUNION_R34_SW REUNION_R34_NW REUNION_R50_NE REUNION_R50_SE REUNION_R50_SW REUNION_R50_NW REUNION_R64_NE REUNION_R64_SE REUNION_R64_SW REUNION_R64_NW BOM_LAT BOM_LON BOM_TYPE BOM_WIND BOM_PRES BOM_TNUM BOM_CI BOM_RMW BOM_R34_NE BOM_R34_SE BOM_R34_SW BOM_R34_NW BOM_R50_NE BOM_R50_SE BOM_R50_SW BOM_R50_NW BOM_R64_NE BOM_R64_SE BOM_R64_SW BOM_R64_NW BOM_ROCI BOM_POCI BOM_EYE BOM_POS_METHOD BOM_PRES_METHOD NADI_LAT NADI_LON NADI_CAT NADI_WIND NADI_PRES WELLINGTON_LAT WELLINGTON_LON WELLINGTON_WIND WELLINGTON_PRES DS824_LAT DS824_LON DS824_STAGE DS824_WIND DS824_PRES TD9636_LAT TD9636_LON TD9636_STAGE TD9636_WIND TD9636_PRES TD9635_LAT TD9635_LON TD9635_WIND TD9635_PRES TD9635_ROCI NEUMANN_LAT NEUMANN_LON NEUMANN_CLASS NEUMANN_WIND NEUMANN_PRES MLC_LAT MLC_LON MLC_CLASS MLC_WIND MLC_PRES USA_GUST BOM_GUST BOM_GUST_PER REUNION_GUST REUNION_GUST_PER USA_SEAHGT USA_SEARAD_NE USA_SEARAD_SE USA_SEARAD_SW USA_SEARAD_NW STORM_SPEED STORM_DIR
1910027S13148 1910 7 SP EA NOT_NAMED 1910-01-26 23:00:00 NR -12.8000 148.200 main 292 292 __________O___ -1 -12.8000 148.200 7 3 226
1910027S13148 1910 7 SP EA NOT_NAMED 1910-01-27 00:00:00 NR -12.8273 148.167 main 292 291 __________P___ -1 -12.8273 148.167 7 3 230
1910027S13148 1910 7 SP EA NOT_NAMED 1910-01-27 03:00:00 NR -12.9116 148.067 main 302 302 __________P___ -1 -12.9116 148.067 7 3 227
1910027S13148 1910 7 SP EA NOT_NAMED 1910-01-27 06:00:00 NR -13.0051 147.967 main 313 313 __________P___ -1 -13.0051 147.967 7 3 223
1910027S13148 1910 7 SP EA NOT_NAMED 1910-01-27 09:00:00 NR -13.1147 147.867 main 324 324 __________P___ -1 -13.1147 147.867 7 3 220
1910027S13148 1910 7 SP EA NOT_NAMED 1910-01-27 11:00:00 NR -13.2000 147.800 main 336 336 __________O___ -1 -13.2000 147.800 7 3 216
1910027S13148 1910 7 SP EA NOT_NAMED 1910-01-27 12:00:00 NR -13.2470 147.767 main 336 314 __________P___ -1 -13.2470 147.767 7 4 213
1910027S13148 1910 7 SP EA NOT_NAMED 1910-01-27 15:00:00 NR -13.4042 147.667 main 314 293 __________P___ -1 -13.4042 147.667 7 4 210
1910027S13148 1910 7 SP EA NOT_NAMED 1910-01-27 18:00:00 NR -13.5805 147.567 main 293 272 __________P___ -1 -13.5805 147.567 7 4 208
1910027S13148 1910 7 SP EA NOT_NAMED 1910-01-27 21:00:00 NR -13.7697 147.467 main 272 257 __________P___ -1 -13.7697 147.467 7 4 207
1910027S13148 1910 7 SP EA NOT_NAMED 1910-01-27 23:00:00 NR -13.9000 147.400 main 257 252 __________O___ -1 -13.9000 147.400 7 4 207
1910027S13148 1910 7 SP EA NOT_NAMED 1910-01-28 00:00:00 NR -13.9621 147.370 main 252 237 __________P___ -1 -13.9621 147.370 7 4 204
1910027S13148 1910 7 SP EA NOT_NAMED 1910-01-28 03:00:00 NR -14.1533 147.283 main 233 218 __________P___ -1 -14.1533 147.283 7 4 204
1910027S13148 1910 7 SP EA NOT_NAMED 1910-01-28 06:00:00 NR -14.3520 147.190 main 215 201 __________P___ -1 -14.3520 147.190 7 5 206
1910027S13148 1910 7 SP EA NOT_NAMED 1910-01-28 09:00:00 NR -14.5583 147.084 main 198 184 __________P___ -1 -14.5583 147.084 7 5 208
1910027S13148 1910 7 SP EA NOT_NAMED 1910-01-28 11:00:00 NR -14.7000 147.000 main 184 180 __________O___ -1 -14.7000 147.000 7 5 211
1910027S13148 1910 7 SP EA NOT_NAMED 1910-01-28 12:00:00 NR -14.7692 146.951 main 180 154 __________P___ -1 -14.7692 146.951 7 5 217
1910027S13148 1910 7 SP EA NOT_NAMED 1910-01-28 15:00:00 NR -14.9813 146.785 main 154 129 __________P___ -1 -14.9813 146.785 7 6 218
1910027S13148 1910 7 SP EA NOT_NAMED 1910-01-28 18:00:00 NR -15.2025 146.604 main 129 107 __________P___ -1 -15.2025 146.604 7 6 218
1910027S13148 1910 7 SP EA NOT_NAMED 1910-01-28 21:00:00 NR -15.4360 146.419 main 107 99 __________P___ -1 -15.4360 146.419 7 6 216
1910027S13148 1910 7 SP EA NOT_NAMED 1910-01-28 23:00:00 NR -15.6000 146.300 main 102 96 __________O___ -1 -15.6000 146.300 7 6 214
1910027S13148 1910 7 SP EA NOT_NAMED 1910-01-29 00:00:00 NR -15.6837 146.244 main 87 67 __________P___ -1 -15.6837 146.244 7 6 211
1910027S13148 1910 7 SP EA NOT_NAMED 1910-01-29 03:00:00 NR -15.9454 146.081 main 67 42 __________P___ -1 -15.9454 146.081 7 6 210
1910027S13148 1910 7 SP EA NOT_NAMED 1910-01-29 06:00:00 NR -16.2205 145.927 main 42 30 __________P___ -1 -16.2205 145.927 7 6 207
1910027S13148 1910 7 SP EA NOT_NAMED 1910-01-29 09:00:00 NR -16.5057 145.786 main 30 10 __________P___ -1 -16.5057 145.786 7 6 204
1910027S13148 1910 7 SP EA NOT_NAMED 1910-01-29 11:00:00 NR -16.7000 145.700 main 10 0 __________O___ -1 -16.7000 145.700 7 7 203
1910027S13148 1910 7 SP EA NOT_NAMED 1910-01-29 12:00:00 NR -16.8077 145.651 main 0 0 __________P___ -1 -16.8077 145.651 7 7 202
1910027S13148 1910 7 SP EA NOT_NAMED 1910-01-29 15:00:00 NR -17.1410 145.513 main 0 0 __________P___ -1 -17.1410 145.513 7 7 200
1910027S13148 1910 7 SP EA NOT_NAMED 1910-01-29 18:00:00 NR -17.4651 145.398 main 0 0 __________P___ -1 -17.4651 145.398 7 6 197
1910027S13148 1910 7 SP EA NOT_NAMED 1910-01-29 21:00:00 NR -17.7487 145.322 main 0 0 __________P___ -1 -17.7487 145.322 7 5 193
1910027S13148 1910 7 SP EA NOT_NAMED 1910-01-29 23:00:00 NR -17.9000 145.300 main 0 0 __________O___ -1 -17.9000 145.300 7 4 184
1910027S13148 1910 7 SP EA NOT_NAMED 1910-01-30 00:00:00 NR -17.9539 145.300 main 0 0 __________P___ -1 -17.9539 145.300 7 3 164
1910027S13148 1910 7 SP EA NOT_NAMED 1910-01-30 03:00:00 NR -18.0656 145.339 main 0 0 __________P___ -1 -18.0656 145.339 7 2 147
1910027S13148 1910 7 SP EA NOT_NAMED 1910-01-30 06:00:00 NR -18.1266 145.421 main 0 0 __________P___ -1 -18.1266 145.421 7 2 120
1910027S13148 1910 7 SP EA NOT_NAMED 1910-01-30 09:00:00 NR -18.1679 145.526 main 0 0 __________P___ -1 -18.1679 145.526 7 2 113
1910027S13148 1910 7 SP EA NOT_NAMED 1910-01-30 11:00:00 NR -18.2000 145.600 main 0 0 __________O___ -1 -18.2000 145.600 7 2 124
1910027S13148 1910 7 SP EA NOT_NAMED 1910-01-30 12:00:00 NR -18.2225 145.612 main 0 0 __________P___ -1 -18.2225 145.612 7 2 162
1910027S13148 1910 7 SP EA NOT_NAMED 1910-01-30 15:00:00 NR -18.2922 145.645 main 0 0 __________P___ -1 -18.2922 145.645 7 2 152
1910027S13148 1910 7 SP EA NOT_NAMED 1910-01-30 18:00:00 NR -18.3781 145.708 main 0 0 __________P___ -1 -18.3781 145.708 7 3 137
1910027S13148 1910 7 SP EA NOT_NAMED 1910-01-30 21:00:00 NR -18.4959 145.846 main 0 0 __________P___ -1 -18.4959 145.846 7 4 129
1910027S13148 1910 7 SP EA NOT_NAMED 1910-01-30 23:00:00 NR -18.6000 146.000 main 0 0 __________O___ -1 -18.6000 146.000 7 6 125
1910027S13148 1910 7 SP EA NOT_NAMED 1910-01-31 00:00:00 NR -18.6684 146.109 main 0 0 __________P___ -1 -18.6684 146.109 7 9 122
1910027S13148 1910 7 SP EA NOT_NAMED 1910-01-31 03:00:00 NR -18.9084 146.519 main 15 11 __________P___ -1 -18.9084 146.519 7 10 121
1910027S13148 1910 7 SP EA NOT_NAMED 1910-01-31 06:00:00 NR -19.1763 147.016 main 11 0 __________P___ -1 -19.1763 147.016 7 11 119
1910027S13148 1910 7 SP EA NOT_NAMED 1910-01-31 09:00:00 NR -19.4408 147.549 main 10 10 __________P___ -1 -19.4408 147.549 7 11 117
1910027S13148 1910 7 SP EA NOT_NAMED 1910-01-31 11:00:00 NR -19.6000 147.900 main 24 23 __________O___ -1 -19.6000 147.900 7 10 115
1910027S13148 1910 7 SP EA NOT_NAMED 1910-01-31 12:00:00 NR -19.6606 148.045 main 23 22 __________P___ -1 -19.6606 148.045 7 9 112
1910027S13148 1910 7 SP EA NOT_NAMED 1910-01-31 15:00:00 NR -19.8195 148.471 main 30 30 __________P___ -1 -19.8195 148.471 7 9 110
1910027S13148 1910 7 SP EA NOT_NAMED 1910-01-31 18:00:00 NR -19.9591 148.902 main 35 35 __________P___ -1 -19.9591 148.902 7 9 108
1910027S13148 1910 7 SP EA NOT_NAMED 1910-01-31 21:00:00 NR -20.0982 149.364 main 66 66 __________P___ -1 -20.0982 149.364 7 9 108
1910027S13148 1910 7 SP EA NOT_NAMED 1910-01-31 23:00:00 NR -20.2000 149.700 main 89 89 __________O___ -1 -20.2000 149.700 7 10 109
1910027S13148 1910 7 SP EA NOT_NAMED 1910-02-01 00:00:00 NR -20.2637 149.884 main 106 106 __________P___ -1 -20.2637 149.884 7 12 110
1910027S13148 1910 7 SP EA NOT_NAMED 1910-02-01 03:00:00 NR -20.4672 150.472 main 150 150 __________P___ -1 -20.4672 150.472 7 12 110
1910027S13148 1910 7 SP EA NOT_NAMED 1910-02-01 06:00:00 NR -20.6773 151.104 main 194 192 __________P___ -1 -20.6773 151.104 7 13 109
1910027S13148 1910 7 SP EA NOT_NAMED 1910-02-01 09:00:00 NR -20.8784 151.759 main 202 202 __________P___ -1 -20.8784 151.759 7 13 107
1910027S13148 1910 7 SP EA NOT_NAMED 1910-02-01 11:00:00 NR -21.0000 152.200 main 220 220 __________O___ -1 -21.0000 152.200 7 13 106
1910027S13148 1910 7 SP EA NOT_NAMED 1910-02-01 12:00:00 NR -21.0555 152.420 main 227 227 __________P___ -1 -21.0555 152.420 7 13 104
1910027S13148 1910 7 SP EA NOT_NAMED 1910-02-01 15:00:00 NR -21.2023 153.074 main 278 278 __________P___ -1 -21.2023 153.074 7 12 103
1910027S13148 1910 7 SP EA NOT_NAMED 1910-02-01 18:00:00 NR -21.3255 153.723 main 327 327 __________P___ -1 -21.3255 153.723 7 12 101
1910027S13148 1910 7 SP EA NOT_NAMED 1910-02-01 21:00:00 NR -21.4330 154.370 main 391 388 __________P___ -1 -21.4330 154.370 7 12 100
1910027S13148 1910 7 SP EA NOT_NAMED 1910-02-01 23:00:00 NR -21.5000 154.800 main 399 __________O___ -1 -21.5000 154.800 7 12 100

デジタル台風データ・検索

IBTrACS Databaseについて

本データベースは、米国NOAAが公開する1842年以降の世界の熱帯低気圧のベストトラックデータアーカイブInternational Best Track Archive for Climate Stewardship (IBTrACS)を、ウェブで閲覧しやすい形式に変換したものです。

最終更新日:2021-11-26